createdAt,value
2023-04-07T00:00:06.792Z,7.13
2023-04-07T00:01:10.072Z,7.20
2023-04-07T00:02:12.553Z,7.45
2023-04-07T00:03:16.051Z,6.95
2023-04-07T00:04:18.684Z,6.68
2023-04-07T00:05:22.080Z,6.97
2023-04-07T00:06:24.417Z,8.27
2023-04-07T00:07:27.782Z,7.05
2023-04-07T00:08:30.377Z,7.90
2023-04-07T00:09:33.648Z,7.82
2023-04-07T00:10:37.360Z,7.00
2023-04-07T00:11:40.690Z,8.15
2023-04-07T00:12:43.071Z,8.13
2023-04-07T00:13:46.532Z,8.75
2023-04-07T00:14:48.837Z,8.02
2023-04-07T00:15:52.192Z,8.00
2023-04-07T00:16:54.519Z,8.20
2023-04-07T00:17:57.856Z,7.97
2023-04-07T00:19:00.191Z,7.72
2023-04-07T00:20:03.455Z,7.88
2023-04-07T00:21:06.121Z,7.10
2023-04-07T00:22:09.392Z,8.20
2023-04-07T00:23:11.714Z,8.18
2023-04-07T00:24:18.510Z,7.78
2023-04-07T00:25:29.623Z,6.78
2023-04-07T00:26:34.256Z,8.27
2023-04-07T00:27:36.574Z,8.07
2023-04-07T00:28:39.910Z,8.05
2023-04-07T00:29:43.776Z,7.32
2023-04-07T00:30:47.030Z,8.10
2023-04-07T00:31:49.347Z,8.48
2023-04-07T00:32:52.725Z,8.85
2023-04-07T00:33:56.036Z,8.40
2023-04-07T00:34:59.501Z,8.38
2023-04-07T00:36:05.008Z,7.85
2023-04-07T00:37:08.311Z,8.02
2023-04-07T00:38:10.613Z,7.90
2023-04-07T00:39:13.901Z,7.88
2023-04-07T00:40:16.400Z,7.13
2023-04-07T00:41:19.686Z,7.82
2023-04-07T00:42:23.381Z,7.25
2023-04-07T00:43:26.825Z,7.45
2023-04-07T00:44:29.137Z,7.93
2023-04-07T00:45:32.530Z,7.70
2023-04-07T00:46:34.902Z,7.47
2023-04-07T00:47:38.361Z,7.15
2023-04-07T00:48:40.718Z,7.10
2023-04-07T00:49:44.117Z,7.25
2023-04-07T00:50:46.705Z,7.15
2023-04-07T00:51:50.048Z,6.05
2023-04-07T00:52:52.849Z,7.00
2023-04-07T00:53:56.787Z,6.70
2023-04-07T00:55:00.315Z,7.30
2023-04-07T00:56:03.656Z,7.50
2023-04-07T00:57:05.976Z,6.60
2023-04-07T00:58:11.072Z,7.32
2023-04-07T00:59:13.385Z,6.70
2023-04-07T01:00:16.955Z,7.28
2023-04-07T01:01:23.115Z,7.00
2023-04-07T01:02:30.683Z,7.40
2023-04-07T01:03:36.633Z,7.22
2023-04-07T01:04:45.585Z,7.13
2023-04-07T01:05:51.421Z,6.95
2023-04-07T01:06:57.146Z,7.15
2023-04-07T01:08:01.795Z,6.43
2023-04-07T01:09:08.956Z,7.85
2023-04-07T01:10:13.476Z,6.88
2023-04-07T01:11:19.408Z,6.65
2023-04-07T01:12:26.286Z,6.93
2023-04-07T01:13:33.543Z,6.82
2023-04-07T01:14:41.198Z,6.88
2023-04-07T01:15:46.624Z,6.95
2023-04-07T01:16:51.529Z,6.53
2023-04-07T01:18:01.545Z,6.55
2023-04-07T01:19:07.923Z,6.05
2023-04-07T01:20:14.408Z,6.20
2023-04-07T01:21:18.048Z,6.60
2023-04-07T01:22:25.579Z,6.60
2023-04-07T01:23:29.989Z,6.22
2023-04-07T01:24:51.338Z,6.72
2023-04-07T01:26:04.997Z,5.88
2023-04-07T01:27:16.120Z,6.28
2023-04-07T01:28:31.444Z,6.40
2023-04-07T01:29:40.533Z,5.85
2023-04-07T01:30:44.211Z,6.43
2023-04-07T01:31:48.727Z,6.45
2023-04-07T01:32:53.813Z,6.85
2023-04-07T01:33:57.791Z,6.97
2023-04-07T01:35:00.938Z,7.00
2023-04-07T01:36:04.818Z,7.32
2023-04-07T01:37:07.566Z,7.97
2023-04-07T01:38:11.259Z,8.82
2023-04-07T01:39:14.066Z,8.20
2023-04-07T01:40:18.275Z,6.88
2023-04-07T01:41:21.005Z,7.38
2023-04-07T01:42:24.502Z,7.75
2023-04-07T01:43:28.443Z,7.45
2023-04-07T01:44:32.184Z,7.88
2023-04-07T01:45:36.989Z,7.00
2023-04-07T01:46:40.321Z,7.30
2023-04-07T01:47:42.842Z,6.90
2023-04-07T01:48:46.791Z,7.07
2023-04-07T01:49:49.530Z,6.53
2023-04-07T01:50:52.960Z,6.82
2023-04-07T01:51:55.531Z,7.20
2023-04-07T01:52:59.184Z,6.90
2023-04-07T01:54:02.754Z,6.32
2023-04-07T01:55:06.335Z,8.10
2023-04-07T01:56:08.829Z,8.60
2023-04-07T01:57:12.095Z,7.75
2023-04-07T01:58:14.414Z,9.10
2023-04-07T01:59:17.736Z,8.88
2023-04-07T02:00:20.100Z,7.57
2023-04-07T02:01:24.799Z,8.07
2023-04-07T02:02:27.570Z,7.05
2023-04-07T02:03:33.212Z,7.97
2023-04-07T02:04:39.080Z,7.97
2023-04-07T02:05:42.504Z,7.05
2023-04-07T02:06:49.103Z,7.95
2023-04-07T02:07:55.526Z,7.88
2023-04-07T02:08:59.820Z,8.10
2023-04-07T02:10:04.321Z,7.35
2023-04-07T02:11:08.205Z,7.95
2023-04-07T02:12:13.735Z,7.32
2023-04-07T02:13:16.929Z,7.85
2023-04-07T02:14:22.665Z,8.00
2023-04-07T02:15:25.992Z,6.93
2023-04-07T02:16:31.852Z,7.65
2023-04-07T02:17:35.577Z,6.78
2023-04-07T02:18:39.639Z,7.00
2023-04-07T02:19:46.029Z,7.43
2023-04-07T02:20:48.985Z,7.13
2023-04-07T02:21:53.433Z,7.45
2023-04-07T02:22:56.032Z,6.68
2023-04-07T02:24:02.336Z,7.35
2023-04-07T02:25:18.353Z,6.40
2023-04-07T02:26:21.629Z,7.05
2023-04-07T02:27:23.906Z,7.28
2023-04-07T02:28:27.178Z,7.47
2023-04-07T02:29:29.514Z,7.50
2023-04-07T02:30:33.974Z,7.05
2023-04-07T02:31:37.631Z,7.68
2023-04-07T02:32:41.419Z,7.57
2023-04-07T02:33:43.777Z,7.38
2023-04-07T02:34:48.092Z,7.85
2023-04-07T02:35:50.594Z,7.32
2023-04-07T02:36:54.099Z,8.18
2023-04-07T02:37:56.467Z,7.68
2023-04-07T02:39:00.456Z,7.88
2023-04-07T02:40:02.877Z,7.85
2023-04-07T02:41:06.661Z,7.85
2023-04-07T02:42:08.945Z,7.70
2023-04-07T02:43:12.204Z,7.28
2023-04-07T02:44:14.565Z,7.63
2023-04-07T02:45:17.854Z,7.25
2023-04-07T02:46:20.279Z,7.50
2023-04-07T02:47:25.045Z,7.32
2023-04-07T02:48:27.338Z,7.50
2023-04-07T02:49:30.617Z,6.63
2023-04-07T02:50:32.936Z,7.75
2023-04-07T02:51:36.325Z,7.20
2023-04-07T02:52:38.722Z,6.90
2023-04-07T02:53:42.023Z,7.07
2023-04-07T02:54:44.355Z,7.53
2023-04-07T02:55:47.931Z,7.57
2023-04-07T02:56:50.261Z,8.32
2023-04-07T02:57:53.568Z,7.55
2023-04-07T02:58:56.023Z,7.47
2023-04-07T02:59:59.295Z,7.20
2023-04-07T03:01:01.581Z,8.02
2023-04-07T03:02:05.035Z,8.23
2023-04-07T03:03:09.183Z,8.07
2023-04-07T03:04:12.722Z,7.75
2023-04-07T03:05:15.678Z,8.45
2023-04-07T03:06:18.991Z,8.77
2023-04-07T03:07:21.392Z,8.38
2023-04-07T03:08:24.663Z,8.27
2023-04-07T03:09:27.395Z,8.38
2023-04-07T03:10:31.077Z,8.10
2023-04-07T03:11:33.360Z,8.30
2023-04-07T03:12:36.663Z,9.05
2023-04-07T03:13:38.969Z,8.82
2023-04-07T03:14:42.299Z,9.05
2023-04-07T03:15:44.792Z,9.45
2023-04-07T03:16:48.130Z,9.32
2023-04-07T03:17:50.652Z,9.35
2023-04-07T03:18:55.379Z,9.40
2023-04-07T03:19:57.705Z,9.70
2023-04-07T03:21:01.021Z,8.98
2023-04-07T03:22:03.372Z,9.18
2023-04-07T03:23:06.825Z,9.02
2023-04-07T03:24:09.242Z,9.18
2023-04-07T03:25:12.577Z,9.07
2023-04-07T03:26:14.946Z,9.43
2023-04-07T03:27:18.468Z,9.45
2023-04-07T03:28:21.228Z,9.93
2023-04-07T03:29:24.551Z,9.85
2023-04-07T03:30:27.509Z,8.88
2023-04-07T03:31:31.143Z,8.45
2023-04-07T03:32:33.517Z,8.95
2023-04-07T03:33:37.159Z,9.30
2023-04-07T03:34:40.842Z,9.35
2023-04-07T03:35:44.366Z,9.48
2023-04-07T03:36:47.638Z,10.27
2023-04-07T03:37:49.912Z,10.07
2023-04-07T03:38:53.236Z,9.75
2023-04-07T03:39:55.588Z,9.93
2023-04-07T03:40:58.875Z,10.15
2023-04-07T03:42:01.183Z,9.80
2023-04-07T03:43:04.456Z,9.63
2023-04-07T03:44:07.076Z,10.13
2023-04-07T03:45:10.961Z,10.38
2023-04-07T03:46:13.323Z,9.18
2023-04-07T03:47:16.607Z,10.27
2023-04-07T03:48:18.920Z,8.63
2023-04-07T03:49:21.307Z,9.18
2023-04-07T03:50:26.112Z,8.98
2023-04-07T03:51:28.575Z,9.88
2023-04-07T03:52:32.014Z,9.35
2023-04-07T03:53:34.349Z,8.38
2023-04-07T03:54:37.705Z,9.63
2023-04-07T03:55:40.092Z,8.30
2023-04-07T03:56:43.411Z,8.45
2023-04-07T03:57:45.947Z,9.77
2023-04-07T03:58:49.348Z,9.15
2023-04-07T03:59:51.724Z,8.35
2023-04-07T04:00:55.035Z,8.57
2023-04-07T04:01:57.415Z,7.90
2023-04-07T04:03:00.865Z,9.20
2023-04-07T04:04:03.495Z,7.88
2023-04-07T04:05:07.054Z,7.95
2023-04-07T04:06:10.698Z,8.35
2023-04-07T04:07:13.970Z,8.55
2023-04-07T04:08:16.264Z,9.00
2023-04-07T04:09:20.859Z,8.48
2023-04-07T04:10:23.314Z,9.57
2023-04-07T04:11:27.344Z,9.18
2023-04-07T04:12:29.641Z,9.23
2023-04-07T04:13:33.287Z,8.98
2023-04-07T04:14:35.608Z,8.95
2023-04-07T04:15:38.955Z,8.95
2023-04-07T04:16:41.315Z,8.32
2023-04-07T04:17:44.619Z,8.95
2023-04-07T04:18:46.974Z,8.27
2023-04-07T04:19:51.203Z,8.55
2023-04-07T04:20:53.602Z,8.43
2023-04-07T04:21:58.298Z,8.60
2023-04-07T04:23:00.583Z,8.07
2023-04-07T04:24:04.471Z,7.55
2023-04-07T04:25:07.196Z,8.25
2023-04-07T04:26:10.554Z,8.68
2023-04-07T04:27:12.866Z,6.90
2023-04-07T04:28:16.147Z,7.80
2023-04-07T04:29:18.488Z,7.45
2023-04-07T04:30:21.789Z,7.75
2023-04-07T04:31:24.154Z,8.43
2023-04-07T04:32:27.700Z,7.20
2023-04-07T04:33:30.694Z,7.28
2023-04-07T04:34:34.363Z,7.82
2023-04-07T04:35:36.633Z,7.40
2023-04-07T04:36:40.635Z,7.10
2023-04-07T04:37:44.350Z,7.75
2023-04-07T04:38:47.605Z,7.75
2023-04-07T04:39:49.915Z,8.10
2023-04-07T04:40:53.193Z,7.90
2023-04-07T04:41:56.800Z,9.32
2023-04-07T04:43:00.117Z,7.47
2023-04-07T04:44:03.432Z,8.15
2023-04-07T04:45:06.694Z,6.82
2023-04-07T04:46:09.997Z,7.38
2023-04-07T04:47:12.333Z,8.27
2023-04-07T04:48:15.656Z,7.80
2023-04-07T04:49:19.076Z,6.95
2023-04-07T04:50:22.409Z,7.85
2023-04-07T04:51:24.871Z,7.47
2023-04-07T04:52:28.855Z,7.32
2023-04-07T04:53:32.673Z,7.47
2023-04-07T04:54:36.080Z,8.40
2023-04-07T04:55:40.821Z,7.60
2023-04-07T04:56:44.130Z,8.05
2023-04-07T04:57:46.415Z,7.57
2023-04-07T04:58:49.719Z,7.60
2023-04-07T04:59:52.114Z,7.95
2023-04-07T05:00:58.264Z,7.32
2023-04-07T05:02:00.810Z,6.80
2023-04-07T05:03:04.457Z,8.13
2023-04-07T05:04:07.134Z,7.20
2023-04-07T05:05:10.854Z,7.13
2023-04-07T05:06:13.147Z,7.13
2023-04-07T05:07:16.431Z,7.97
2023-04-07T05:08:18.812Z,7.32
2023-04-07T05:09:23.487Z,7.63
2023-04-07T05:10:26.060Z,7.07
2023-04-07T05:11:29.390Z,7.13
2023-04-07T05:12:31.710Z,7.15
2023-04-07T05:13:35.024Z,8.15
2023-04-07T05:14:37.293Z,6.82
2023-04-07T05:15:41.543Z,8.00
2023-04-07T05:16:44.181Z,7.40
2023-04-07T05:17:50.465Z,7.50
2023-04-07T05:18:52.902Z,7.28
2023-04-07T05:19:56.177Z,7.90
2023-04-07T05:20:58.602Z,7.20
2023-04-07T05:22:01.940Z,8.00
2023-04-07T05:23:04.276Z,7.93
2023-04-07T05:24:09.241Z,7.90
2023-04-07T05:25:13.361Z,7.35
2023-04-07T05:26:16.628Z,7.38
2023-04-07T05:27:18.936Z,7.22
2023-04-07T05:28:22.187Z,8.00
2023-04-07T05:29:24.512Z,7.80
2023-04-07T05:30:27.795Z,8.23
2023-04-07T05:31:30.335Z,8.27
2023-04-07T05:32:33.743Z,7.70
2023-04-07T05:33:36.100Z,7.68
2023-04-07T05:34:40.110Z,7.38
2023-04-07T05:35:42.420Z,7.78
2023-04-07T05:36:45.978Z,8.00
2023-04-07T05:37:48.323Z,7.82
2023-04-07T05:38:51.640Z,8.30
2023-04-07T05:39:53.948Z,7.65
2023-04-07T05:40:58.559Z,7.60
2023-04-07T05:42:02.198Z,8.13
2023-04-07T05:43:05.746Z,8.20
2023-04-07T05:44:08.039Z,7.82
2023-04-07T05:45:12.210Z,7.82
2023-04-07T05:46:15.661Z,7.70
2023-04-07T05:47:18.047Z,6.95
2023-04-07T05:48:21.576Z,7.55
2023-04-07T05:49:23.892Z,8.98
2023-04-07T05:50:27.173Z,7.70
2023-04-07T05:51:29.473Z,7.53
2023-04-07T05:52:32.770Z,7.60
2023-04-07T05:53:35.134Z,7.38
2023-04-07T05:54:39.405Z,7.32
2023-04-07T05:55:43.094Z,8.00
2023-04-07T05:56:47.750Z,7.57
2023-04-07T05:57:50.073Z,7.75
2023-04-07T05:58:53.735Z,8.00
2023-04-07T05:59:56.151Z,8.23
2023-04-07T06:00:59.430Z,7.93
2023-04-07T06:02:02.010Z,7.90
2023-04-07T06:03:05.457Z,8.18
2023-04-07T06:04:07.850Z,9.00
2023-04-07T06:05:11.197Z,9.35
2023-04-07T06:06:13.499Z,9.73
2023-04-07T06:07:17.575Z,9.02
2023-04-07T06:08:20.025Z,8.48
2023-04-07T06:09:23.415Z,8.52
2023-04-07T06:10:26.710Z,8.80
2023-04-07T06:11:30.021Z,8.57
2023-04-07T06:12:33.674Z,8.40
2023-04-07T06:13:36.952Z,8.85
2023-04-07T06:14:39.356Z,9.07
2023-04-07T06:15:42.702Z,8.88
2023-04-07T06:16:45.722Z,9.38
2023-04-07T06:17:49.155Z,9.18
2023-04-07T06:18:51.574Z,7.97
2023-04-07T06:19:54.908Z,8.48
2023-04-07T06:20:57.235Z,7.50
2023-04-07T06:22:00.604Z,8.25
2023-04-07T06:23:03.897Z,8.02
2023-04-07T06:24:07.640Z,7.90
2023-04-07T06:25:10.463Z,7.53
2023-04-07T06:26:14.152Z,7.40
2023-04-07T06:27:18.481Z,7.25
2023-04-07T06:28:23.189Z,8.52
2023-04-07T06:29:26.462Z,6.50
2023-04-07T06:30:29.824Z,8.63
2023-04-07T06:31:33.160Z,8.18
2023-04-07T06:32:35.495Z,7.93
2023-04-07T06:33:38.795Z,7.75
2023-04-07T06:34:41.086Z,8.02
2023-04-07T06:35:44.504Z,8.45
2023-04-07T06:36:46.896Z,7.32
2023-04-07T06:37:50.258Z,7.90
2023-04-07T06:38:52.592Z,7.85
2023-04-07T06:39:55.898Z,7.18
2023-04-07T06:40:58.231Z,8.30
2023-04-07T06:42:01.757Z,6.88
2023-04-07T06:43:04.211Z,6.70
2023-04-07T06:44:09.596Z,5.97
2023-04-07T06:45:12.212Z,6.75
2023-04-07T06:46:15.512Z,6.65
2023-04-07T06:47:18.893Z,8.25
2023-04-07T06:48:21.222Z,8.00
2023-04-07T06:49:24.536Z,9.25
2023-04-07T06:50:26.788Z,10.40
2023-04-07T06:51:30.100Z,10.57
2023-04-07T06:52:32.453Z,9.18
2023-04-07T06:53:35.752Z,7.93
2023-04-07T06:54:39.031Z,7.38
2023-04-07T06:55:41.692Z,7.97
2023-04-07T06:56:45.360Z,7.88
2023-04-07T06:57:47.644Z,7.97
2023-04-07T06:58:51.089Z,6.97
2023-04-07T06:59:54.733Z,7.53
2023-04-07T07:00:58.050Z,7.63
2023-04-07T07:02:01.397Z,6.75
2023-04-07T07:03:03.974Z,6.65
2023-04-07T07:04:07.401Z,7.53
2023-04-07T07:05:11.471Z,6.82
2023-04-07T07:06:13.766Z,7.75
2023-04-07T07:07:17.035Z,7.13
2023-04-07T07:08:19.336Z,8.05
2023-04-07T07:09:22.652Z,8.23
2023-04-07T07:10:24.964Z,8.30
2023-04-07T07:11:28.292Z,8.60
2023-04-07T07:12:30.619Z,8.50
2023-04-07T07:13:33.917Z,8.13
2023-04-07T07:14:36.460Z,7.25
2023-04-07T07:15:41.252Z,7.57
2023-04-07T07:16:43.646Z,7.28
2023-04-07T07:17:46.918Z,7.80
2023-04-07T07:18:49.219Z,7.57
2023-04-07T07:19:52.518Z,8.23
2023-04-07T07:20:54.811Z,7.72
2023-04-07T07:21:58.109Z,7.78
2023-04-07T07:23:01.577Z,8.48
2023-04-07T07:24:04.927Z,8.55
2023-04-07T07:25:07.569Z,7.90
2023-04-07T07:26:10.897Z,9.45
2023-04-07T07:27:13.173Z,8.10
2023-04-07T07:28:16.686Z,8.98
2023-04-07T07:29:18.960Z,8.52
2023-04-07T07:30:22.557Z,9.63
2023-04-07T07:31:27.266Z,9.48
2023-04-07T07:32:29.637Z,9.18
2023-04-07T07:33:32.933Z,8.68
2023-04-07T07:34:35.273Z,8.98
2023-04-07T07:35:38.937Z,7.85
2023-04-07T07:36:41.238Z,7.45
2023-04-07T07:37:45.000Z,7.75
2023-04-07T07:38:51.295Z,8.70
2023-04-07T07:39:53.588Z,9.68
2023-04-07T07:40:56.853Z,8.95
2023-04-07T07:42:01.549Z,9.30
2023-04-07T07:43:03.896Z,8.77
2023-04-07T07:44:07.212Z,8.70
2023-04-07T07:45:09.936Z,8.93
2023-04-07T07:46:13.243Z,7.95
2023-04-07T07:47:16.909Z,8.27
2023-04-07T07:48:20.328Z,8.50
2023-04-07T07:49:23.622Z,7.72
2023-04-07T07:50:25.954Z,8.50
2023-04-07T07:51:29.254Z,8.80
2023-04-07T07:52:31.835Z,8.05
2023-04-07T07:53:35.083Z,7.82
2023-04-07T07:54:37.370Z,8.50
2023-04-07T07:55:40.764Z,8.38
2023-04-07T07:56:43.049Z,8.80
2023-04-07T07:57:46.480Z,7.32
2023-04-07T07:58:49.741Z,8.38
2023-04-07T07:59:53.421Z,9.00
2023-04-07T08:00:55.878Z,8.68
2023-04-07T08:01:59.294Z,7.38
2023-04-07T08:03:04.022Z,7.55
2023-04-07T08:04:07.538Z,7.68
2023-04-07T08:05:10.166Z,8.13
2023-04-07T08:06:13.437Z,7.45
2023-04-07T08:07:16.709Z,8.90
2023-04-07T08:08:19.140Z,8.82
2023-04-07T08:09:22.631Z,9.63
2023-04-07T08:10:25.402Z,8.32
2023-04-07T08:11:28.690Z,9.07
2023-04-07T08:12:31.975Z,8.00
2023-04-07T08:13:34.301Z,8.27
2023-04-07T08:14:37.579Z,8.20
2023-04-07T08:15:41.108Z,9.02
2023-04-07T08:16:43.710Z,8.77
2023-04-07T08:17:47.033Z,6.90
2023-04-07T08:18:51.808Z,7.72
2023-04-07T08:19:54.119Z,8.38
2023-04-07T08:20:57.633Z,9.15
2023-04-07T08:21:59.971Z,8.27
2023-04-07T08:23:03.506Z,9.93
2023-04-07T08:24:06.904Z,9.93
2023-04-07T08:25:10.706Z,8.88
2023-04-07T08:26:14.032Z,9.30
2023-04-07T08:27:16.323Z,9.18
2023-04-07T08:28:19.610Z,7.55
2023-04-07T08:29:21.905Z,8.40
2023-04-07T08:30:25.371Z,7.88
2023-04-07T08:31:27.716Z,7.78
2023-04-07T08:32:36.614Z,7.43
2023-04-07T08:33:39.945Z,6.05
2023-04-07T08:34:43.590Z,6.60
2023-04-07T08:35:47.563Z,6.90
2023-04-07T08:36:51.014Z,7.47
2023-04-07T08:37:54.287Z,7.85
2023-04-07T08:38:56.922Z,7.20
2023-04-07T08:40:00.218Z,6.90
2023-04-07T08:41:06.024Z,7.32
2023-04-07T08:42:09.566Z,7.60
2023-04-07T08:43:14.689Z,7.82
2023-04-07T08:44:18.112Z,8.48
2023-04-07T08:45:21.446Z,9.15
2023-04-07T08:46:24.991Z,8.57
2023-04-07T08:47:29.355Z,8.85
2023-04-07T08:48:34.128Z,9.85
2023-04-07T08:49:37.594Z,9.13
2023-04-07T08:50:44.031Z,8.00
2023-04-07T08:51:48.433Z,7.57
2023-04-07T08:52:51.444Z,7.85
2023-04-07T08:53:55.755Z,8.27
2023-04-07T08:54:58.742Z,6.80
2023-04-07T08:56:03.123Z,6.55
2023-04-07T08:57:06.037Z,6.10
2023-04-07T08:58:12.467Z,6.97
2023-04-07T08:59:18.555Z,7.15
2023-04-07T09:00:22.147Z,7.60
2023-04-07T09:01:26.963Z,7.38
2023-04-07T09:02:29.886Z,7.85
2023-04-07T09:03:34.130Z,8.25
2023-04-07T09:04:37.461Z,8.00
2023-04-07T09:05:41.263Z,7.80
2023-04-07T09:06:45.459Z,7.63
2023-04-07T09:07:47.853Z,8.35
2023-04-07T09:08:51.118Z,8.35
2023-04-07T09:09:54.375Z,8.35
2023-04-07T09:10:58.032Z,8.40
2023-04-07T09:12:01.311Z,7.82
2023-04-07T09:13:03.601Z,8.20
2023-04-07T09:14:07.008Z,8.07
2023-04-07T09:15:09.552Z,8.70
2023-04-07T09:16:14.150Z,8.10
2023-04-07T09:17:17.480Z,9.02
2023-04-07T09:18:21.008Z,8.05
2023-04-07T09:19:26.547Z,8.98
2023-04-07T09:20:29.861Z,8.25
2023-04-07T09:21:47.037Z,8.88
2023-04-07T09:22:51.742Z,8.07
2023-04-07T09:23:54.153Z,7.95
2023-04-07T09:25:10.892Z,8.80
2023-04-07T09:26:22.101Z,8.77
2023-04-07T09:27:24.413Z,8.52
2023-04-07T09:28:27.902Z,8.32
2023-04-07T09:29:30.202Z,7.80
2023-04-07T09:30:34.561Z,8.48
2023-04-07T09:31:45.322Z,9.07
2023-04-07T09:32:48.714Z,10.80
2023-04-07T09:33:52.820Z,13.07
2023-04-07T09:34:59.450Z,16.05
2023-04-07T09:36:02.729Z,18.02
2023-04-07T09:37:07.193Z,10.68
2023-04-07T09:38:11.999Z,8.77
2023-04-07T09:39:14.278Z,9.43
2023-04-07T09:40:28.366Z,9.73
2023-04-07T09:41:31.665Z,14.30
2023-04-07T09:42:36.099Z,10.32
2023-04-07T09:43:40.514Z,9.10
2023-04-07T09:44:42.891Z,9.57
2023-04-07T09:45:46.810Z,8.95
2023-04-07T09:46:49.602Z,9.27
2023-04-07T09:47:53.004Z,9.75
2023-04-07T09:49:05.100Z,9.65
2023-04-07T09:50:08.112Z,9.77
2023-04-07T09:51:12.806Z,10.25
2023-04-07T09:52:17.583Z,10.90
2023-04-07T09:53:23.305Z,10.18
2023-04-07T09:54:35.933Z,10.07
2023-04-07T09:55:41.859Z,9.65
2023-04-07T09:56:45.600Z,9.43
2023-04-07T09:57:49.702Z,9.23
2023-04-07T09:58:53.287Z,9.90
2023-04-07T09:59:57.460Z,10.45
2023-04-07T10:00:59.944Z,10.55
2023-04-07T10:02:03.592Z,9.60
2023-04-07T10:03:06.423Z,10.65
2023-04-07T10:04:10.378Z,10.20
2023-04-07T10:05:12.695Z,10.48
2023-04-07T10:06:16.618Z,10.57
2023-04-07T10:07:20.105Z,10.45
2023-04-07T10:08:23.817Z,10.93
2023-04-07T10:09:28.496Z,10.73
2023-04-07T10:10:32.170Z,10.98
2023-04-07T10:11:35.484Z,10.02
2023-04-07T10:12:38.459Z,10.13
2023-04-07T10:13:42.211Z,13.27
2023-04-07T10:14:47.135Z,16.45
2023-04-07T10:15:50.955Z,13.35
2023-04-07T10:16:54.705Z,11.38
2023-04-07T10:17:58.274Z,10.98
2023-04-07T10:19:00.826Z,10.77
2023-04-07T10:20:06.455Z,11.90
2023-04-07T10:21:10.736Z,11.55
2023-04-07T10:22:14.324Z,11.35
2023-04-07T10:23:20.559Z,9.90
2023-04-07T10:24:32.096Z,10.68
2023-04-07T10:25:37.175Z,12.70
2023-04-07T10:26:41.815Z,11.07
2023-04-07T10:27:50.561Z,10.80
2023-04-07T10:28:57.257Z,10.98
2023-04-07T10:29:59.873Z,10.45
2023-04-07T10:31:03.942Z,11.38
2023-04-07T10:32:06.876Z,11.40
2023-04-07T10:33:10.551Z,9.70
2023-04-07T10:34:14.084Z,10.35
2023-04-07T10:35:17.236Z,11.30
2023-04-07T10:36:21.413Z,10.18
2023-04-07T10:37:24.313Z,12.00
2023-04-07T10:38:27.916Z,11.77
2023-04-07T10:39:32.648Z,13.30
2023-04-07T10:40:35.554Z,12.05
2023-04-07T10:41:39.474Z,11.75
2023-04-07T10:42:48.199Z,11.68
2023-04-07T10:43:51.646Z,12.27
2023-04-07T10:44:54.024Z,11.05
2023-04-07T10:45:59.545Z,9.35
2023-04-07T10:47:06.390Z,11.13
2023-04-07T10:48:13.351Z,12.35
2023-04-07T10:49:19.099Z,10.98
2023-04-07T10:50:23.748Z,11.68
2023-04-07T10:51:27.254Z,10.68
2023-04-07T10:52:29.577Z,11.73
2023-04-07T10:53:33.939Z,11.38
2023-04-07T10:54:38.601Z,13.30
2023-04-07T10:55:41.047Z,9.82
2023-04-07T10:57:02.974Z,11.00
2023-04-07T10:58:19.820Z,11.73
2023-04-07T10:59:27.543Z,13.30
2023-04-07T11:00:31.455Z,12.20
2023-04-07T11:01:34.854Z,12.85
2023-04-07T11:02:39.463Z,10.05
2023-04-07T11:03:43.779Z,13.35
2023-04-07T11:04:47.219Z,11.68
2023-04-07T11:05:50.755Z,12.80
2023-04-07T11:06:53.072Z,10.60
2023-04-07T11:07:57.877Z,10.70
2023-04-07T11:09:01.211Z,10.30
2023-04-07T11:10:15.994Z,8.88
2023-04-07T11:11:21.684Z,8.82
2023-04-07T11:12:24.154Z,9.15
2023-04-07T11:13:27.466Z,8.50
2023-04-07T11:14:31.743Z,8.40
2023-04-07T11:15:34.535Z,8.68
2023-04-07T11:16:38.959Z,10.60
2023-04-07T11:17:42.273Z,9.15
2023-04-07T11:18:46.038Z,8.93
2023-04-07T11:19:51.992Z,9.43
2023-04-07T11:20:56.387Z,9.35
2023-04-07T11:22:28.800Z,8.00
2023-04-07T11:23:39.416Z,8.20
2023-04-07T11:24:41.886Z,8.75
2023-04-07T11:25:47.252Z,7.88
2023-04-07T11:26:50.836Z,8.38
2023-04-07T11:27:53.691Z,8.45
2023-04-07T11:28:58.914Z,8.95
2023-04-07T11:30:01.349Z,8.20
2023-04-07T11:31:04.840Z,8.95
2023-04-07T11:32:08.258Z,6.85
2023-04-07T11:33:11.555Z,7.70
2023-04-07T11:34:14.879Z,7.68
2023-04-07T11:35:17.337Z,8.10
2023-04-07T11:36:28.546Z,7.68
2023-04-07T11:37:31.040Z,8.75
2023-04-07T11:38:37.633Z,7.05
2023-04-07T11:39:39.965Z,6.85
2023-04-07T11:40:43.277Z,7.60
2023-04-07T11:41:49.382Z,7.95
2023-04-07T11:42:52.415Z,7.43
2023-04-07T11:44:08.568Z,7.70
2023-04-07T11:45:17.988Z,7.13
2023-04-07T11:46:21.721Z,7.30
2023-04-07T11:47:34.269Z,7.68
2023-04-07T11:48:38.039Z,7.90
2023-04-07T11:49:46.324Z,7.57
2023-04-07T11:50:48.624Z,7.47
2023-04-07T11:51:59.296Z,7.88
2023-04-07T11:53:01.748Z,7.45
2023-04-07T11:54:05.227Z,7.30
2023-04-07T11:55:09.811Z,7.88
2023-04-07T11:56:16.890Z,6.93
2023-04-07T11:57:27.414Z,6.45
2023-04-07T11:58:29.815Z,6.93
2023-04-07T11:59:33.141Z,6.95
2023-04-07T12:00:36.414Z,6.55
2023-04-07T12:01:43.040Z,7.13
2023-04-07T12:02:45.711Z,6.70
2023-04-07T12:04:00.144Z,6.60
2023-04-07T12:05:02.743Z,6.78
2023-04-07T12:06:06.442Z,6.85
2023-04-07T12:07:10.320Z,6.57
2023-04-07T12:08:12.978Z,6.90
2023-04-07T12:09:32.397Z,6.43
2023-04-07T12:10:35.368Z,7.22
2023-04-07T12:11:39.046Z,7.85
2023-04-07T12:12:46.372Z,6.72
2023-04-07T12:13:50.138Z,6.40
2023-04-07T12:14:52.691Z,6.32
2023-04-07T12:15:56.246Z,6.63
2023-04-07T12:17:01.643Z,7.03
2023-04-07T12:18:05.149Z,6.80
2023-04-07T12:19:08.514Z,6.95
2023-04-07T12:20:11.524Z,5.88
2023-04-07T12:21:14.922Z,7.10
2023-04-07T12:22:17.274Z,5.38
2023-04-07T12:23:20.573Z,6.47
2023-04-07T12:24:24.045Z,5.93
2023-04-07T12:25:27.590Z,6.68
2023-04-07T12:26:31.212Z,6.53
2023-04-07T12:27:42.834Z,6.22
2023-04-07T12:28:48.534Z,6.53
2023-04-07T12:29:50.859Z,6.22
2023-04-07T12:30:54.320Z,6.07
2023-04-07T12:31:56.836Z,5.70
2023-04-07T12:33:00.690Z,5.38
2023-04-07T12:34:04.485Z,5.32
2023-04-07T12:35:06.929Z,5.70
2023-04-07T12:36:10.375Z,6.25
2023-04-07T12:37:12.716Z,6.07
2023-04-07T12:38:16.120Z,5.90
2023-04-07T12:39:19.460Z,5.68
2023-04-07T12:40:22.271Z,5.32
2023-04-07T12:41:26.752Z,5.97
2023-04-07T12:42:29.053Z,5.00
2023-04-07T12:43:32.428Z,6.25
2023-04-07T12:44:36.671Z,5.13
2023-04-07T12:45:40.003Z,5.60
2023-04-07T12:46:43.301Z,5.60
2023-04-07T12:47:47.393Z,5.45
2023-04-07T12:48:51.574Z,6.22
2023-04-07T12:49:53.900Z,5.82
2023-04-07T12:50:57.206Z,5.07
2023-04-07T12:52:00.030Z,5.55
2023-04-07T12:53:05.374Z,5.63
2023-04-07T12:54:08.737Z,5.40
2023-04-07T12:55:11.121Z,5.60
2023-04-07T12:56:14.417Z,5.33
2023-04-07T12:57:16.774Z,5.60
2023-04-07T12:58:20.161Z,5.40
2023-04-07T12:59:22.466Z,5.17
2023-04-07T13:00:27.119Z,5.50
2023-04-07T13:01:30.642Z,5.17
2023-04-07T13:02:33.129Z,5.00
2023-04-07T13:03:37.295Z,4.27
